createdAt,value
2019-05-13T04:07:54.863Z,10.70
2019-05-13T04:11:42.443Z,10.60
2019-05-13T04:14:25.028Z,10.60
2019-05-13T04:16:57.864Z,10.50
2019-05-13T04:20:03.745Z,10.40
2019-05-13T04:23:03.208Z,10.40
2019-05-13T04:35:05.066Z,10.10
2019-05-13T04:40:12.696Z,10.00
2019-05-13T04:42:13.059Z,9.90
2019-05-13T04:44:56.246Z,9.70
2019-05-13T04:48:23.968Z,9.70
2019-05-13T05:52:06.286Z,10.20
2019-05-13T05:55:33.772Z,10.10
2019-05-13T05:58:22.998Z,10.10
2019-05-13T06:01:12.984Z,10.20
2019-05-13T06:04:01.511Z,10.20
2019-05-13T06:06:49.103Z,10.20
2019-05-13T06:09:36.074Z,10.20
2019-05-13T06:12:23.333Z,10.20
2019-05-13T06:15:12.383Z,10.20
2019-05-13T06:18:02.306Z,10.20
2019-05-13T06:20:51.193Z,10.10
2019-05-13T06:23:38.380Z,10.20
2019-05-13T06:26:25.402Z,10.10
2019-05-13T06:29:12.425Z,10.10
2019-05-13T06:32:15.350Z,10.10
2019-05-13T06:34:48.421Z,10.10
2019-05-13T06:37:35.417Z,10.10
2019-05-13T06:40:22.359Z,10.10
2019-05-13T06:43:12.039Z,10.10
2019-05-13T06:46:01.709Z,10.20
2019-05-13T06:48:48.105Z,10.20
2019-05-13T06:51:42.851Z,10.20
2019-05-13T06:54:32.519Z,10.30
2019-05-13T06:57:26.770Z,10.30
2019-05-13T07:00:15.272Z,10.30
2019-05-13T07:03:14.684Z,10.30
2019-05-13T07:06:42.026Z,10.40
2019-05-13T07:09:32.010Z,10.40
2019-05-13T07:12:21.971Z,10.40
2019-05-13T07:15:11.535Z,10.40
2019-05-13T07:18:02.420Z,10.50
2019-05-13T07:20:53.049Z,10.50
2019-05-13T07:23:43.270Z,10.50
2019-05-13T07:26:37.515Z,10.60
2019-05-13T07:29:36.807Z,10.60
2019-05-13T07:32:44.995Z,10.70
2019-05-13T07:35:37.567Z,10.70
2019-05-13T07:38:28.555Z,10.80
2019-05-13T07:41:57.272Z,10.90
2019-05-13T07:49:02.930Z,11.10
2019-05-13T07:52:25.905Z,11.30
2019-05-13T07:55:56.672Z,11.50
2019-05-13T07:59:01.703Z,11.70
2019-05-13T08:01:58.362Z,11.90
2019-05-13T08:43:52.189Z,14.40
2019-05-13T08:49:51.863Z,14.70
2019-05-13T08:53:14.993Z,14.80
2019-05-13T08:57:11.806Z,15.00
2019-05-13T09:13:33.034Z,15.70
2019-05-13T09:20:36.953Z,16.00
2019-05-13T10:25:32.747Z,18.10
2019-05-13T11:06:18.503Z,19.40
2019-05-13T11:09:44.683Z,19.40
2019-05-13T11:14:15.538Z,19.40
2019-05-13T11:57:53.078Z,20.90
2019-05-13T12:29:55.918Z,21.10
2019-05-13T12:33:58.280Z,21.00
2019-05-13T13:42:12.878Z,19.80
2019-05-13T13:46:06.458Z,19.80
2019-05-13T14:03:52.795Z,19.20
2019-05-13T14:07:34.978Z,19.20
2019-05-13T14:11:13.199Z,19.20
2019-05-13T14:17:55.871Z,19.30
2019-05-13T14:55:42.972Z,19.40
2019-05-13T15:01:56.669Z,19.20
2019-05-13T15:09:06.132Z,19.10
2019-05-13T15:20:12.268Z,19.00
2019-05-13T15:23:31.691Z,19.00
2019-05-13T15:26:36.206Z,19.00
2019-05-13T15:29:48.366Z,19.00
2019-05-13T15:38:12.551Z,19.00
2019-05-13T15:41:15.677Z,18.90
2019-05-13T15:44:03.534Z,18.80
2019-05-13T15:46:52.365Z,18.60
2019-05-13T15:49:41.514Z,18.50
2019-05-13T15:52:32.529Z,18.40
2019-05-13T15:55:21.893Z,18.40
2019-05-13T15:58:08.788Z,18.40
2019-05-13T16:00:55.752Z,18.30
2019-05-13T16:04:16.692Z,18.30
2019-05-13T16:07:04.064Z,18.30
2019-05-13T16:10:06.159Z,18.20
2019-05-13T16:12:55.083Z,18.20
2019-05-13T16:15:42.214Z,18.10
2019-05-13T16:18:31.655Z,18.00
2019-05-13T16:21:18.882Z,18.00
2019-05-13T16:24:05.946Z,18.00
2019-05-13T16:26:52.986Z,18.00
2019-05-13T16:29:41.935Z,18.00
2019-05-13T16:32:32.597Z,17.90
2019-05-13T16:35:21.484Z,18.00
2019-05-13T16:38:08.577Z,17.90
2019-05-13T16:40:56.969Z,17.90
2019-05-13T16:43:49.769Z,18.00
2019-05-13T16:46:36.554Z,17.90
2019-05-13T16:49:31.828Z,18.00
2019-05-13T16:52:44.507Z,18.00
2019-05-13T16:55:33.393Z,18.00
2019-05-13T16:58:24.920Z,18.10
2019-05-13T17:01:14.268Z,18.10
2019-05-13T17:04:02.025Z,18.20
2019-05-13T17:06:49.413Z,18.20
2019-05-13T17:09:37.587Z,18.30
2019-05-13T17:12:24.351Z,18.30
2019-05-13T17:15:12.299Z,18.30
2019-05-13T17:18:09.164Z,18.30
2019-05-13T17:20:48.593Z,18.30
2019-05-13T17:23:35.334Z,18.30
2019-05-13T17:26:22.330Z,18.30
2019-05-13T17:29:09.189Z,18.20
2019-05-13T17:31:57.695Z,18.10
2019-05-13T17:34:46.018Z,18.10
2019-05-13T17:37:32.995Z,18.00
2019-05-13T17:40:22.289Z,18.00
2019-05-13T17:43:21.339Z,18.00
2019-05-13T17:46:08.406Z,17.90
2019-05-13T17:48:55.415Z,17.80
2019-05-13T17:51:42.710Z,17.80
2019-05-13T17:54:31.877Z,17.70
2019-05-13T17:57:21.421Z,17.60
2019-05-13T18:00:08.969Z,17.50
2019-05-13T18:02:56.128Z,17.40
2019-05-13T18:05:42.959Z,17.30
2019-05-13T18:08:31.887Z,17.30
2019-05-13T18:11:18.960Z,17.20
2019-05-13T18:14:05.624Z,17.10
2019-05-13T18:16:52.559Z,17.10
2019-05-13T18:19:41.991Z,17.00
2019-05-13T18:22:30.782Z,17.00
2019-05-13T18:25:17.374Z,17.00
2019-05-13T18:28:04.076Z,16.90
2019-05-13T18:30:51.624Z,16.90
2019-05-13T18:33:38.566Z,16.90
2019-05-13T18:36:25.275Z,16.90
2019-05-13T18:39:12.638Z,16.90
2019-05-13T18:41:59.771Z,16.90
2019-05-13T18:44:46.656Z,16.80
2019-05-13T18:47:33.717Z,16.70
2019-05-13T18:50:22.003Z,16.70
2019-05-13T18:53:10.093Z,16.60
2019-05-13T18:55:56.634Z,16.60
2019-05-13T18:58:43.546Z,16.50
2019-05-13T19:01:32.073Z,16.50
2019-05-13T19:04:21.802Z,16.40
2019-05-13T19:07:08.919Z,16.30
2019-05-13T19:09:55.950Z,16.30
2019-05-13T19:12:42.846Z,16.20
2019-05-13T19:15:31.595Z,16.20
2019-05-13T19:18:18.498Z,16.20
2019-05-13T19:21:05.823Z,16.10
2019-05-13T19:23:52.637Z,16.00
2019-05-13T19:26:41.504Z,16.00
2019-05-13T19:29:28.301Z,15.90
2019-05-13T19:32:15.264Z,15.90
2019-05-13T19:35:02.683Z,15.80
2019-05-13T19:37:51.597Z,15.70
2019-05-13T19:40:38.466Z,15.70
2019-05-13T19:43:25.505Z,15.60
2019-05-13T19:46:12.100Z,15.50
2019-05-13T19:49:01.433Z,15.50
2019-05-13T19:51:54.420Z,15.40
2019-05-13T19:54:42.025Z,15.30
2019-05-13T19:57:31.625Z,15.30
2019-05-13T20:00:18.120Z,15.20
2019-05-13T20:03:07.228Z,15.10
2019-05-13T20:05:54.119Z,15.00
2019-05-13T20:08:41.356Z,15.00
2019-05-13T20:11:28.449Z,14.90
2019-05-13T20:14:15.292Z,14.80
2019-05-13T20:17:02.222Z,14.80
2019-05-13T20:19:51.448Z,14.70
2019-05-13T20:22:38.065Z,14.60
2019-05-13T20:25:25.387Z,14.60
2019-05-13T20:28:11.966Z,14.50
2019-05-13T20:30:58.973Z,14.40
2019-05-13T20:33:51.617Z,14.40
2019-05-13T20:36:38.602Z,14.30
2019-05-13T20:39:25.547Z,14.20
2019-05-13T20:42:12.706Z,14.20
2019-05-13T20:45:02.274Z,14.10
2019-05-13T20:47:49.236Z,14.10
2019-05-13T20:50:35.965Z,14.00
2019-05-13T20:53:22.672Z,13.90
2019-05-13T20:56:09.838Z,13.90
2019-05-13T20:58:56.692Z,13.90
2019-05-13T21:01:43.462Z,13.80
2019-05-13T21:04:32.035Z,13.80
2019-05-13T21:07:18.799Z,13.70
2019-05-13T21:10:06.091Z,13.70
2019-05-13T21:12:52.740Z,13.60
2019-05-13T21:15:41.903Z,13.60
2019-05-13T21:18:28.309Z,13.60
2019-05-13T21:21:15.201Z,13.50
2019-05-13T21:24:02.101Z,13.50
2019-05-13T21:26:51.103Z,13.50
2019-05-13T21:29:37.801Z,13.40
2019-05-13T21:32:24.685Z,13.40
2019-05-13T21:35:12.126Z,13.40
2019-05-13T21:37:58.651Z,13.30
2019-05-13T21:40:45.602Z,13.30
2019-05-13T21:43:32.670Z,13.30
2019-05-13T21:46:21.212Z,13.30
2019-05-13T21:49:08.466Z,13.20
2019-05-13T21:51:55.340Z,13.10
2019-05-13T21:54:42.386Z,13.10
2019-05-13T21:57:32.934Z,13.00
2019-05-13T22:00:23.722Z,12.90
2019-05-13T22:03:11.589Z,12.90
2019-05-13T22:05:58.545Z,12.80
2019-05-13T22:08:45.547Z,12.80
2019-05-13T22:11:35.023Z,12.70
2019-05-13T22:14:20.872Z,12.70
2019-05-13T22:17:07.890Z,12.60
2019-05-13T22:19:54.722Z,12.60
2019-05-13T22:22:41.639Z,12.50
2019-05-13T22:25:28.612Z,12.50
2019-05-13T22:28:15.642Z,12.50
2019-05-13T22:31:02.374Z,12.40
2019-05-13T22:33:52.294Z,12.40
2019-05-13T22:36:39.465Z,12.30
2019-05-13T22:39:26.239Z,12.30
2019-05-13T22:42:13.109Z,12.30
2019-05-13T22:45:02.574Z,12.20
2019-05-13T22:47:49.055Z,12.10
2019-05-13T22:50:35.817Z,12.10
2019-05-13T22:53:22.871Z,12.00
2019-05-13T22:56:09.641Z,12.00
2019-05-13T22:58:56.487Z,11.90
2019-05-13T23:01:43.572Z,11.90
2019-05-13T23:04:31.408Z,11.80
2019-05-13T23:07:18.571Z,11.80
2019-05-13T23:10:06.821Z,11.80
2019-05-13T23:12:53.889Z,11.70
2019-05-13T23:15:40.670Z,11.70
2019-05-13T23:18:27.538Z,11.70
2019-05-13T23:21:14.711Z,11.70
2019-05-13T23:24:02.238Z,11.60
2019-05-13T23:26:51.564Z,11.70
2019-05-13T23:29:41.032Z,11.60
2019-05-13T23:32:27.352Z,11.60
2019-05-13T23:35:14.353Z,11.60
2019-05-13T23:38:01.684Z,11.60
2019-05-13T23:40:48.773Z,11.60
2019-05-13T23:43:35.733Z,11.50
2019-05-13T23:46:22.566Z,11.50
2019-05-13T23:49:11.778Z,11.50
2019-05-13T23:51:58.100Z,11.50
2019-05-13T23:54:45.084Z,11.50
2019-05-13T23:57:32.027Z,11.50
